createdAt,value
2022-08-20T00:02:51.889Z,95513.34
2022-08-20T00:07:55.311Z,95518.16
2022-08-20T00:12:58.793Z,95518.03
2022-08-20T00:18:02.127Z,95530.16
2022-08-20T00:23:10.190Z,95523.28
2022-08-20T00:28:13.890Z,95522.50
2022-08-20T00:33:17.169Z,95527.91
2022-08-20T00:38:20.568Z,95537.97
2022-08-20T00:43:23.878Z,95538.28
2022-08-20T00:48:27.317Z,95540.19
2022-08-20T00:53:33.440Z,95534.72
2022-08-20T00:58:37.372Z,95533.91
2022-08-20T01:03:42.341Z,95535.97
2022-08-20T01:08:45.565Z,95543.78
2022-08-20T01:13:48.902Z,95548.09
2022-08-20T01:18:52.683Z,95547.63
2022-08-20T01:23:56.100Z,95549.34
2022-08-20T01:28:59.649Z,95558.63
2022-08-20T01:34:02.938Z,95558.63
2022-08-20T01:39:06.304Z,95558.47
2022-08-20T01:44:13.436Z,95559.88
2022-08-20T01:49:22.849Z,95563.38
2022-08-20T01:54:27.289Z,95560.50
2022-08-20T01:59:30.530Z,95558.28
2022-08-20T02:04:35.000Z,95563.22
2022-08-20T02:09:41.538Z,95568.94
2022-08-20T02:14:45.376Z,95578.53
2022-08-20T02:19:48.685Z,95575.19
2022-08-20T02:24:52.868Z,95577.91
2022-08-20T02:29:56.201Z,95578.69
2022-08-20T02:34:59.393Z,95586.66
2022-08-20T02:40:02.846Z,95579.31
2022-08-20T02:45:06.492Z,95578.03
2022-08-20T02:50:12.813Z,95576.91
2022-08-20T02:55:18.811Z,95583.66
2022-08-20T03:00:32.227Z,95589.91
2022-08-20T03:05:40.997Z,95582.44
2022-08-20T03:10:43.948Z,95583.56
2022-08-20T03:15:47.042Z,95585.94
2022-08-20T03:20:52.126Z,95593.13
2022-08-20T03:25:55.098Z,95595.19
2022-08-20T03:30:59.383Z,95596.66
2022-08-20T03:36:02.162Z,95597.78
2022-08-20T03:41:04.887Z,95595.91
2022-08-20T03:46:07.616Z,95606.84
2022-08-20T03:51:26.262Z,95609.28
2022-08-20T03:56:29.144Z,95617.72
2022-08-20T04:01:45.592Z,95612.84
2022-08-20T04:06:49.379Z,95611.56
2022-08-20T04:12:00.384Z,95604.50
2022-08-20T04:17:03.292Z,95619.41
2022-08-20T04:22:06.682Z,95622.94
2022-08-20T04:27:09.616Z,95625.94
2022-08-20T04:32:12.884Z,95633.59
2022-08-20T04:37:17.726Z,95635.22
2022-08-20T04:42:20.506Z,95641.59
2022-08-20T04:47:26.775Z,95630.75
2022-08-20T04:52:38.070Z,95641.31
2022-08-20T04:57:41.155Z,95646.56
2022-08-20T05:02:44.050Z,95630.94
2022-08-20T05:07:46.969Z,95634.94
2022-08-20T05:12:53.772Z,95640.97
2022-08-20T05:18:00.844Z,95649.19
2022-08-20T05:23:03.866Z,95656.50
2022-08-20T05:28:09.614Z,95665.13
2022-08-20T05:33:13.482Z,95676.44
2022-08-20T05:38:16.401Z,95672.47
2022-08-20T05:43:19.236Z,95676.97
2022-08-20T05:48:22.083Z,95679.19
2022-08-20T05:53:25.003Z,95680.19
2022-08-20T05:58:29.259Z,95681.47
2022-08-20T06:03:49.810Z,95687.53
2022-08-20T06:08:53.922Z,95678.41
2022-08-20T06:13:56.799Z,95678.41
2022-08-20T06:19:00.096Z,95687.72
2022-08-20T06:24:05.874Z,95691.88
2022-08-20T06:29:08.730Z,95694.13
2022-08-20T06:34:11.552Z,95694.75
2022-08-20T06:39:14.781Z,95694.75
2022-08-20T06:44:17.558Z,95706.09
2022-08-20T06:49:20.342Z,95696.81
2022-08-20T06:54:23.293Z,95700.00
2022-08-20T06:59:32.670Z,95706.88
2022-08-20T07:04:38.429Z,95709.94
2022-08-20T07:09:41.421Z,95722.75
2022-08-20T07:14:44.339Z,95722.88
2022-08-20T07:19:47.242Z,95722.09
2022-08-20T07:24:50.218Z,95723.03
2022-08-20T07:30:15.281Z,95726.41
2022-08-20T07:35:18.321Z,95728.34
2022-08-20T07:40:25.733Z,95731.38
2022-08-20T07:45:28.962Z,95728.66
2022-08-20T07:50:32.151Z,95740.50
2022-08-20T07:55:34.998Z,95736.16
2022-08-20T08:00:37.825Z,95742.59
2022-08-20T08:05:40.594Z,95740.81
2022-08-20T08:10:43.846Z,95739.50
2022-08-20T08:15:47.168Z,95739.88
2022-08-20T08:20:51.287Z,95742.75
2022-08-20T08:25:54.161Z,95738.81
2022-08-20T08:30:57.131Z,95749.81
2022-08-20T08:36:00.370Z,95751.91
2022-08-20T08:41:04.871Z,95766.84
2022-08-20T08:46:08.800Z,95763.00
2022-08-20T08:51:12.791Z,95771.50
2022-08-20T08:56:15.529Z,95783.69
2022-08-20T09:01:53.839Z,95784.34
2022-08-20T09:06:41.718Z,95785.28
2022-08-20T09:11:44.600Z,95789.22
2022-08-20T09:16:53.322Z,95791.28
2022-08-20T09:21:56.417Z,95787.75
2022-08-20T09:26:59.206Z,95791.28
2022-08-20T09:32:02.077Z,95792.09
2022-08-20T09:37:06.688Z,95801.22
2022-08-20T09:42:09.486Z,95801.53
2022-08-20T09:47:12.245Z,95789.88
2022-08-20T09:52:15.086Z,95795.03
2022-08-20T09:57:17.873Z,95790.25
2022-08-20T10:02:20.958Z,95783.38
2022-08-20T10:07:23.986Z,95784.16
2022-08-20T10:12:26.759Z,95786.09
2022-08-20T10:17:29.518Z,95782.25
2022-08-20T10:22:32.979Z,95785.28
2022-08-20T10:27:38.746Z,95788.31
2022-08-20T10:32:42.817Z,95782.22
2022-08-20T10:37:46.507Z,95783.22
2022-08-20T10:42:49.816Z,95778.09
2022-08-20T10:47:53.098Z,95781.59
2022-08-20T10:52:56.333Z,95782.50
2022-08-20T10:57:59.613Z,95776.09
2022-08-20T11:03:02.809Z,95772.53
2022-08-20T11:08:06.020Z,95772.88
2022-08-20T11:13:09.309Z,95768.13
2022-08-20T11:18:13.174Z,95767.44
2022-08-20T11:23:16.551Z,95744.00
2022-08-20T11:28:31.097Z,95744.78
2022-08-20T11:33:35.553Z,95736.50
2022-08-20T11:38:39.068Z,95733.84
2022-08-20T11:43:51.153Z,95736.38
2022-08-20T11:49:03.014Z,95737.03
2022-08-20T11:54:06.384Z,95733.19
2022-08-20T11:59:11.385Z,95744.84
2022-08-20T12:04:15.504Z,95749.03
2022-08-20T12:09:23.067Z,95745.91
2022-08-20T12:14:28.078Z,95736.63
2022-08-20T12:19:30.957Z,95747.16
2022-08-20T12:24:33.804Z,95744.34
2022-08-20T12:29:36.662Z,95745.09
2022-08-20T12:34:40.550Z,95731.97
2022-08-20T12:39:43.887Z,95722.53
2022-08-20T12:44:46.632Z,95719.13
2022-08-20T12:49:49.864Z,95721.00
2022-08-20T12:54:53.166Z,95716.47
2022-08-20T12:59:56.517Z,95712.78
2022-08-20T13:05:05.497Z,95713.28
2022-08-20T13:10:12.685Z,95719.00
2022-08-20T13:15:15.949Z,95723.97
2022-08-20T13:20:19.272Z,95708.31
2022-08-20T13:25:22.583Z,95708.38
2022-08-20T13:30:25.962Z,95711.91
2022-08-20T13:35:28.702Z,95700.72
2022-08-20T13:40:31.405Z,95690.47
2022-08-20T13:45:34.603Z,95689.19
2022-08-20T13:50:37.904Z,95682.66
2022-08-20T13:55:41.277Z,95678.69
2022-08-20T14:00:44.565Z,95677.59
2022-08-20T14:05:47.597Z,95671.00
2022-08-20T14:10:51.314Z,95672.72
2022-08-20T14:15:55.129Z,95669.72
2022-08-20T14:20:58.537Z,95673.47
2022-08-20T14:26:01.864Z,95679.47
2022-08-20T14:31:05.162Z,95696.13
2022-08-20T14:36:08.452Z,95709.47
2022-08-20T14:41:12.008Z,95710.34
2022-08-20T14:46:15.225Z,95719.94
2022-08-20T14:51:18.404Z,95718.41
2022-08-20T14:56:21.764Z,95758.19
2022-08-20T15:01:25.146Z,95782.66
2022-08-20T15:06:28.567Z,95814.25
2022-08-20T15:11:34.585Z,95839.34
2022-08-20T15:16:37.973Z,95822.66
2022-08-20T15:21:45.144Z,95824.66
2022-08-20T15:26:48.568Z,95826.25
2022-08-20T15:31:51.284Z,95818.53
2022-08-20T15:36:54.546Z,95817.25
2022-08-20T15:41:57.325Z,95816.25
2022-08-20T15:47:00.140Z,95805.44
2022-08-20T15:52:03.021Z,95797.41
2022-08-20T15:57:05.749Z,95795.50
2022-08-20T16:02:08.474Z,95797.41
2022-08-20T16:07:11.282Z,95797.78
2022-08-20T16:12:14.131Z,95798.03
2022-08-20T16:17:17.107Z,95788.84
2022-08-20T16:22:19.869Z,95796.44
2022-08-20T16:27:22.708Z,95802.97
2022-08-20T16:32:25.489Z,95802.38
2022-08-20T16:37:28.820Z,95808.59
2022-08-20T16:42:31.908Z,95809.56
2022-08-20T16:47:34.726Z,95817.91
2022-08-20T16:52:37.562Z,95821.47
2022-08-20T16:57:40.417Z,95816.13
2022-08-20T17:02:44.769Z,95818.84
2022-08-20T17:07:50.689Z,95826.91
2022-08-20T17:12:54.769Z,95832.97
2022-08-20T17:17:57.662Z,95842.56
2022-08-20T17:23:00.846Z,95835.91
2022-08-20T17:28:04.421Z,95841.03
2022-08-20T17:33:07.183Z,95838.75
2022-08-20T17:38:09.937Z,95835.91
2022-08-20T17:43:15.141Z,95835.28
2022-08-20T17:48:17.867Z,95832.47
2022-08-20T17:53:23.420Z,95843.50
2022-08-20T17:58:26.469Z,95847.81
2022-08-20T18:03:29.477Z,95843.19
2022-08-20T18:08:32.492Z,95841.44
2022-08-20T18:13:35.193Z,95838.94
2022-08-20T18:18:52.927Z,95838.63
2022-08-20T18:24:00.178Z,95835.91
2022-08-20T18:29:02.929Z,95848.97
2022-08-20T18:34:05.658Z,95852.28
2022-08-20T18:39:08.634Z,95844.34
2022-08-20T18:44:11.369Z,95851.06
2022-08-20T18:49:14.200Z,95854.91
2022-08-20T18:54:16.964Z,95851.69
2022-08-20T18:59:19.899Z,95856.81
2022-08-20T19:04:22.657Z,95861.63
2022-08-20T19:09:25.407Z,95870.69
2022-08-20T19:14:28.244Z,95868.09
2022-08-20T19:19:33.114Z,95876.88
2022-08-20T19:24:37.217Z,95875.25
2022-08-20T19:29:42.476Z,95869.81
2022-08-20T19:34:45.306Z,95861.81
2022-08-20T19:39:48.104Z,95869.09
2022-08-20T19:44:51.999Z,95862.56
2022-08-20T19:49:55.535Z,95855.41
2022-08-20T19:55:03.556Z,95858.00
2022-08-20T20:00:08.153Z,95856.03
2022-08-20T20:05:10.855Z,95850.09
2022-08-20T20:10:13.546Z,95842.56
2022-08-20T20:15:16.257Z,95847.56
2022-08-20T20:20:18.981Z,95833.28
2022-08-20T20:25:21.823Z,95839.75
2022-08-20T20:30:24.643Z,95835.72
2022-08-20T20:35:27.325Z,95836.53
2022-08-20T20:40:30.566Z,95831.34
2022-08-20T20:45:36.525Z,95834.53
2022-08-20T20:50:39.234Z,95835.91
2022-08-20T20:55:42.760Z,95835.53
2022-08-20T21:00:45.921Z,95833.63
2022-08-20T21:05:48.657Z,95831.91
2022-08-20T21:10:51.400Z,95824.53
2022-08-20T21:15:54.092Z,95822.44
2022-08-20T21:20:56.793Z,95830.84
2022-08-20T21:25:59.542Z,95824.72
2022-08-20T21:31:02.856Z,95828.75
2022-08-20T21:36:05.976Z,95833.09
2022-08-20T21:41:08.749Z,95838.53
2022-08-20T21:46:12.881Z,95838.50
2022-08-20T21:51:15.753Z,95828.13
2022-08-20T21:56:18.890Z,95828.41
2022-08-20T22:01:22.148Z,95829.19
2022-08-20T22:06:25.036Z,95830.16
2022-08-20T22:11:27.809Z,95824.25
2022-08-20T22:16:30.589Z,95821.22
2022-08-20T22:21:33.667Z,95821.72
2022-08-20T22:26:36.367Z,95820.13
2022-08-20T22:31:39.513Z,95815.50
2022-08-20T22:36:42.258Z,95817.91
2022-08-20T22:41:45.022Z,95810.34
2022-08-20T22:46:50.591Z,95810.88
2022-08-20T22:51:56.826Z,95813.59
2022-08-20T22:56:59.592Z,95807.03
2022-08-20T23:02:06.600Z,95807.53
2022-08-20T23:07:11.340Z,95810.81
2022-08-20T23:12:15.345Z,95809.31
2022-08-20T23:17:19.188Z,95805.53
2022-08-20T23:22:22.297Z,95800.91
2022-08-20T23:27:26.635Z,95797.44
2022-08-20T23:32:29.362Z,95788.50
2022-08-20T23:37:32.131Z,95785.09
2022-08-20T23:42:34.924Z,95792.41
2022-08-20T23:47:37.631Z,95791.41
2022-08-20T23:52:40.373Z,95786.13
2022-08-20T23:57:43.137Z,95773.91
